Time;durP1;ratioP1;P1;durP2;ratioP2;P2;SDS_P1;SDS_P2;PMS_P1;PMS_P2;Temp;Humidity;BMP_temperature;BMP_pressure;BME280_temperature;BME280_humidity;BME280_pressure;Samples;Min_cycle;Max_cycle;Signal;HPM_P1;HPM_P2
2021/01/11 00:01:28;;;;;;;24.73;15.57;;;;;;;-4.11;88.07;97278.06;5148646;27;20178;-68
2021/01/11 00:03:53;;;;;;;21.13;13.70;;;;;;;-4.07;87.95;97273.53;5118628;27;20204;-67
2021/01/11 00:06:18;;;;;;;23.43;15.03;;;;;;;-4.08;87.83;97274.44;5129833;27;20196;-67
2021/01/11 00:08:45;;;;;;;23.40;15.23;;;;;;;-4.04;87.86;97278.38;5149994;27;20301;-69
2021/01/11 00:11:32;;;;;;;22.13;14.73;;;;;;;-4.03;87.64;97283.38;5125474;27;20267;-68
2021/01/11 00:13:59;;;;;;;26.23;15.67;;;;;;;-3.93;87.88;97286.81;5116925;27;20176;-67
2021/01/11 00:16:25;;;;;;;23.43;15.47;;;;;;;-4.05;87.71;97287.00;5105542;27;20617;-67
2021/01/11 00:18:50;;;;;;;22.70;14.33;;;;;;;-4.12;87.64;97291.00;5140765;27;20301;-68
2021/01/11 00:21:16;;;;;;;22.97;15.43;;;;;;;-4.25;88.28;97279.19;5115886;27;20182;-68
2021/01/11 00:23:42;;;;;;;22.60;14.73;;;;;;;-4.22;88.65;97280.66;5115357;27;20176;-68
2021/01/11 00:26:11;;;;;;;24.47;15.17;;;;;;;-4.28;88.74;97279.41;5150646;27;20602;-68
2021/01/11 00:28:39;;;;;;;23.83;15.07;;;;;;;-4.27;88.15;97275.91;5128475;27;20203;-68
2021/01/11 00:31:04;;;;;;;24.20;14.70;;;;;;;-4.23;88.40;97268.81;5147568;27;20191;-68
2021/01/11 00:33:30;;;;;;;21.80;14.30;;;;;;;-4.27;88.43;97270.81;5131196;27;20223;-68
2021/01/11 00:35:55;;;;;;;21.57;14.37;;;;;;;-4.30;88.79;97272.81;5141316;27;20182;-68
2021/01/11 00:38:21;;;;;;;23.53;14.63;;;;;;;-4.30;88.46;97270.25;5129841;27;20257;-68
2021/01/11 00:40:46;;;;;;;26.13;15.63;;;;;;;-4.30;88.92;97270.25;5146213;27;20225;-68
2021/01/11 00:43:11;;;;;;;24.80;15.10;;;;;;;-4.34;88.79;97274.78;5120908;27;20187;-68
2021/01/11 00:45:37;;;;;;;22.33;14.40;;;;;;;-4.27;88.30;97270.81;5149444;27;20671;-68
2021/01/11 00:48:03;;;;;;;23.70;15.10;;;;;;;-4.22;88.59;97266.13;5119744;27;20204;-68
2021/01/11 00:50:28;;;;;;;23.93;15.20;;;;;;;-4.25;88.50;97266.38;5133294;27;20171;-68
2021/01/11 00:52:54;;;;;;;22.70;14.93;;;;;;;-4.28;88.39;97268.38;5128284;27;20189;-68
2021/01/11 00:55:19;;;;;;;22.80;14.43;;;;;;;-4.22;87.94;97268.69;5116920;27;20594;-68
2021/01/11 00:57:44;;;;;;;24.20;15.27;;;;;;;-4.28;87.68;97261.50;5132740;27;20185;-68
2021/01/11 01:00:11;;;;;;;22.70;14.60;;;;;;;-4.34;88.54;97264.53;5145328;27;20533;-68
2021/01/11 01:02:37;;;;;;;23.67;15.33;;;;;;;-4.39;88.56;97264.09;5101675;27;20183;-68
2021/01/11 01:05:06;;;;;;;25.60;14.90;;;;;;;-4.39;88.84;97269.22;5126704;27;20172;-68
2021/01/11 01:07:32;;;;;;;24.90;14.83;;;;;;;-4.39;88.52;97269.22;5120286;27;20196;-70
2021/01/11 01:09:57;;;;;;;22.13;14.57;;;;;;;-4.41;88.88;97273.66;5100633;28;20172;-68
2021/01/11 01:12:22;;;;;;;24.80;15.20;;;;;;;-4.42;89.08;97273.78;5147385;27;20749;-68
2021/01/11 01:14:48;;;;;;;27.47;15.27;;;;;;;-4.43;89.00;97272.16;5121978;27;20202;-67
2021/01/11 01:17:13;;;;;;;24.40;15.40;;;;;;;-4.36;89.18;97276.66;5138516;27;20194;-68
2021/01/11 01:19:38;;;;;;;25.10;15.77;;;;;;;-4.36;88.84;97279.22;5136062;27;20189;-68
2021/01/11 01:22:04;;;;;;;23.70;15.03;;;;;;;-4.38;88.68;97282.81;5106065;27;20639;-67
2021/01/11 01:24:29;;;;;;;24.30;14.77;;;;;;;-4.44;88.44;97275.63;5148435;27;20178;-67
2021/01/11 01:26:54;;;;;;;25.33;15.33;;;;;;;-4.48;88.49;97267.41;5125229;27;20536;-67
2021/01/11 01:29:20;;;;;;;23.00;14.43;;;;;;;-4.50;88.71;97273.56;5097621;27;20638;-67
2021/01/11 01:31:45;;;;;;;23.27;14.37;;;;;;;-4.54;88.95;97269.63;5138194;27;20178;-68
2021/01/11 01:34:11;;;;;;;25.80;14.47;;;;;;;-4.51;88.28;97265.06;5121141;27;20220;-68
2021/01/11 01:36:36;;;;;;;22.17;14.27;;;;;;;-4.56;89.30;97276.59;5146388;27;20179;-68
2021/01/11 01:39:02;;;;;;;24.97;14.93;;;;;;;-4.60;89.85;97276.03;5126335;27;20179;-67
2021/01/11 01:41:27;;;;;;;24.73;14.73;;;;;;;-4.54;90.20;97272.19;5134194;27;20635;-67
2021/01/11 01:43:52;;;;;;;25.03;15.83;;;;;;;-4.55;90.31;97275.66;5138781;27;20178;-67
2021/01/11 01:46:21;;;;;;;26.90;16.83;;;;;;;-4.57;90.23;97272.44;5117945;27;20188;-68
2021/01/11 01:48:47;;;;;;;27.37;16.97;;;;;;;-4.58;90.16;97269.06;5127499;27;20548;-68
2021/01/11 01:51:14;;;;;;;24.57;15.47;;;;;;;-4.59;89.55;97275.13;5129492;27;20186;-67
2021/01/11 01:53:39;;;;;;;27.70;15.57;;;;;;;-4.57;90.00;97275.81;5129386;27;20176;-68
2021/01/11 01:56:06;;;;;;;24.57;15.53;;;;;;;-4.55;89.07;97281.59;5141908;27;20231;-67
2021/01/11 01:58:34;;;;;;;24.17;15.53;;;;;;;-4.56;88.24;97279.16;5117389;27;20184;-70
2021/01/11 02:00:59;;;;;;;21.50;14.03;;;;;;;-4.62;88.88;97277.91;5140883;27;20237;-68
2021/01/11 02:03:24;;;;;;;25.33;15.73;;;;;;;-4.45;88.96;97276.56;5131024;27;20588;-68
2021/01/11 02:05:50;;;;;;;23.47;15.30;;;;;;;-4.53;88.45;97281.50;5127067;27;20198;-68
2021/01/11 02:08:31;;;;;;;24.63;15.33;;;;;;;-4.65;89.53;97283.25;5145187;27;20198;-67
2021/01/11 02:11:24;;;;;;;26.90;15.47;;;;;;;-4.68;89.89;97278.41;5099142;27;20244;-67
2021/01/11 02:14:12;;;;;;;27.13;15.00;;;;;;;-4.63;90.10;97276.28;5119576;27;20176;-67
2021/01/11 02:16:46;;;;;;;23.70;14.47;;;;;;;-4.66;90.02;97277.34;5117298;27;20167;-67
2021/01/11 02:19:17;;;;;;;24.03;14.37;;;;;;;-4.74;89.99;97273.75;5134592;27;20218;-67
2021/01/11 02:22:12;;;;;;;22.30;14.23;;;;;;;-4.74;89.45;97268.66;5136211;27;20186;-67
2021/01/11 02:25:05;;;;;;;22.27;14.57;;;;;;;-4.78;89.64;97264.69;5074236;27;20620;-67
2021/01/11 02:27:39;;;;;;;25.83;14.63;;;;;;;-4.69;89.03;97267.34;5132762;27;20219;-71
2021/01/11 02:30:05;;;;;;;21.93;13.80;;;;;;;-4.80;89.26;97256.34;5142148;27;20271;-67
2021/01/11 02:32:31;;;;;;;24.27;14.53;;;;;;;-4.77;89.50;97258.66;5119920;27;20658;-68
2021/01/11 02:35:03;;;;;;;25.80;14.83;;;;;;;-4.70;88.91;97267.47;5124749;27;20244;-67
2021/01/11 02:37:31;;;;;;;22.37;14.10;;;;;;;-4.73;89.77;97253.16;5115358;27;20194;-67
2021/01/11 02:39:56;;;;;;;21.83;14.50;;;;;;;-4.73;89.24;97250.63;5108041;27;20195;-68
2021/01/11 02:42:22;;;;;;;23.70;13.97;;;;;;;-4.69;88.95;97261.44;5126525;27;20547;-69
2021/01/11 02:44:48;;;;;;;21.03;13.47;;;;;;;-4.74;89.30;97259.25;5118273;27;20171;-68
2021/01/11 02:47:18;;;;;;;22.77;13.80;;;;;;;-4.76;89.31;97265.38;5135926;27;20234;-68
2021/01/11 02:49:54;;;;;;;23.70;15.37;;;;;;;-4.72;89.42;97259.09;5127717;27;20630;-68
2021/01/11 02:52:27;;;;;;;23.17;14.37;;;;;;;-4.61;89.42;97253.94;5143399;27;20171;-68
2021/01/11 02:54:59;;;;;;;24.43;13.97;;;;;;;-4.68;89.34;97253.63;5118309;27;20171;-68
2021/01/11 02:57:39;;;;;;;23.33;14.70;;;;;;;-4.73;88.63;97247.25;5120829;27;20172;-68
2021/01/11 03:00:06;;;;;;;21.87;13.77;;;;;;;-4.74;88.30;97250.75;5098374;28;20243;-69
2021/01/11 03:02:33;;;;;;;25.87;15.37;;;;;;;-4.74;88.72;97245.66;5109738;28;20183;-71
2021/01/11 03:04:59;;;;;;;22.40;14.10;;;;;;;-4.78;88.53;97249.34;5119803;27;20188;-68
2021/01/11 03:07:25;;;;;;;22.53;14.03;;;;;;;-4.78;89.55;97251.91;5143971;27;20202;-68
2021/01/11 03:09:50;;;;;;;25.10;14.50;;;;;;;-4.77;88.73;97250.97;5147123;27;20295;-68
2021/01/11 03:12:16;;;;;;;25.27;14.63;;;;;;;-4.79;89.35;97255.41;5112278;28;20189;-68
2021/01/11 03:14:42;;;;;;;22.43;13.43;;;;;;;-4.78;89.57;97257.03;5128384;27;20204;-69
2021/01/11 03:17:08;;;;;;;26.60;14.00;;;;;;;-4.76;89.29;97265.38;5128005;27;20188;-69
2021/01/11 03:19:33;;;;;;;24.73;15.20;;;;;;;-4.77;89.49;97250.97;5139165;27;20184;-71
2021/01/11 03:21:59;;;;;;;25.17;14.53;;;;;;;-4.80;89.78;97254.59;5141994;27;20207;-68
2021/01/11 03:24:24;;;;;;;23.80;14.27;;;;;;;-4.81;89.89;97247.03;5129485;27;20191;-68
2021/01/11 03:26:51;;;;;;;24.97;15.20;;;;;;;-4.86;89.73;97236.38;5127587;27;20197;-69
2021/01/11 03:29:18;;;;;;;25.80;15.40;;;;;;;-4.87;90.45;97237.31;5115344;27;20552;-69
2021/01/11 03:31:44;;;;;;;25.70;16.03;;;;;;;-4.92;90.89;97247.88;5128950;27;20239;-69
2021/01/11 03:34:11;;;;;;;29.77;16.73;;;;;;;-4.80;90.02;97246.94;5155971;27;20305;-68
2021/01/11 03:36:37;;;;;;;28.60;16.23;;;;;;;-4.81;90.43;97235.09;5126470;27;20180;-68
2021/01/11 03:39:04;;;;;;;26.97;15.27;;;;;;;-4.76;90.25;97239.81;5152035;27;20186;-68
2021/01/11 03:41:32;;;;;;;27.70;15.83;;;;;;;-4.78;90.13;97241.69;5152417;27;20184;-68
2021/01/11 03:43:57;;;;;;;25.83;16.07;;;;;;;-4.81;90.21;97249.59;5144694;27;20267;-69
2021/01/11 03:46:22;;;;;;;25.10;14.50;;;;;;;-4.86;90.42;97244.84;5133310;27;20261;-68
2021/01/11 03:48:48;;;;;;;25.90;15.87;;;;;;;-4.91;91.01;97249.53;5130040;27;20208;-68
2021/01/11 03:51:13;;;;;;;23.60;15.40;;;;;;;-4.90;90.44;97252.88;5112498;27;20246;-67
2021/01/11 03:53:39;;;;;;;23.87;14.20;;;;;;;-4.95;90.69;97255.78;5101171;27;20180;-69
2021/01/11 03:56:06;;;;;;;26.70;15.37;;;;;;;-4.81;90.27;97255.53;5124504;27;20668;-67
2021/01/11 03:58:31;;;;;;;26.17;15.13;;;;;;;-4.82;90.30;97243.69;5149252;27;20270;-70
2021/01/11 04:00:59;;;;;;;25.83;14.93;;;;;;;-4.79;90.27;97250.31;5118855;27;20192;-68
2021/01/11 04:03:25;;;;;;;27.20;15.30;;;;;;;-4.77;90.42;97249.25;5125196;27;20174;-67
2021/01/11 04:05:50;;;;;;;26.07;14.93;;;;;;;-4.85;90.56;97249.03;5144385;27;20270;-68
2021/01/11 04:08:16;;;;;;;27.13;15.60;;;;;;;-4.74;90.51;97246.47;5113729;27;20669;-69
2021/01/11 04:10:41;;;;;;;27.30;15.17;;;;;;;-4.88;91.02;97245.91;5104101;27;20182;-68
2021/01/11 04:13:07;;;;;;;25.13;14.87;;;;;;;-4.86;91.00;97247.41;5128481;27;20637;-68
2021/01/11 04:15:33;;;;;;;24.20;14.57;;;;;;;-4.87;90.28;97247.53;5135314;27;20185;-71
2021/01/11 04:17:59;;;;;;;24.97;14.93;;;;;;;-4.96;91.33;97246.50;5126953;27;20226;-68
2021/01/11 05:00:30;;;;;;;25.80;14.43;;;;;;;-5.06;90.81;97268.56;4891902;29;20210;-67
2021/01/11 05:03:05;;;;;;;26.33;14.60;;;;;;;-5.12;91.45;97269.84;4907988;29;20323;-67
2021/01/11 05:05:40;;;;;;;25.73;14.03;;;;;;;-5.16;90.77;97258.25;4910070;29;20294;-67
2021/01/11 05:08:06;;;;;;;25.97;13.40;;;;;;;-5.22;90.35;97265.56;4910395;29;20621;-67
2021/01/11 05:10:40;;;;;;;22.40;14.27;;;;;;;-5.30;90.25;97268.72;4909913;29;20217;-67
2021/01/11 05:13:05;;;;;;;23.57;13.93;;;;;;;-5.19;90.30;97258.50;4910388;29;20707;-67
2021/01/11 05:15:37;;;;;;;22.63;13.93;;;;;;;-5.16;89.72;97257.44;4910145;29;20199;-67
2021/01/11 05:18:19;;;;;;;24.30;14.80;;;;;;;-5.18;90.04;97251.66;4926309;29;20270;-67
2021/01/11 05:20:45;;;;;;;24.60;14.80;;;;;;;-5.18;89.99;97247.31;4909541;29;20287;-67
2021/01/11 05:23:13;;;;;;;24.70;14.60;;;;;;;-5.21;89.82;97249.31;4909906;29;20310;-67
2021/01/11 05:25:40;;;;;;;26.23;15.37;;;;;;;-5.21;90.26;97247.56;4909299;29;20179;-67
2021/01/11 05:28:11;;;;;;;28.90;15.27;;;;;;;-5.28;90.71;97254.06;4918534;29;20222;-67
2021/01/11 05:30:50;;;;;;;28.47;15.87;;;;;;;-5.11;90.62;97257.91;4985521;28;20196;-67
2021/01/11 05:33:18;;;;;;;27.33;15.47;;;;;;;-5.22;90.34;97261.28;4985880;28;20191;-67
2021/01/11 05:35:44;;;;;;;29.10;17.10;;;;;;;-5.38;89.85;97254.91;5030883;28;20201;-67
2021/01/11 05:38:15;;;;;;;26.70;17.03;;;;;;;-5.44;89.55;97258.72;5064310;28;20268;-67
2021/01/11 05:40:40;;;;;;;25.10;15.57;;;;;;;-5.62;89.53;97258.38;5065690;28;20196;-67
2021/01/11 05:43:06;;;;;;;26.70;15.40;;;;;;;-5.73;89.33;97258.34;5068006;28;20174;-67
2021/01/11 05:45:35;;;;;;;28.50;16.40;;;;;;;-5.70;89.59;97253.03;5067390;28;20188;-67
2021/01/11 05:48:06;;;;;;;26.33;15.37;;;;;;;-5.78;89.65;97257.06;5074797;28;20259;-68
2021/01/11 05:50:32;;;;;;;23.70;14.53;;;;;;;-5.83;89.25;97266.81;5084801;28;20204;-67
2021/01/11 05:52:58;;;;;;;25.00;14.57;;;;;;;-5.92;89.22;97271.72;5087160;28;20204;-67
2021/01/11 05:55:28;;;;;;;25.70;15.20;;;;;;;-5.89;89.60;97268.09;5087864;28;20168;-67
2021/01/11 05:57:57;;;;;;;23.43;14.83;;;;;;;-5.87;89.47;97279.03;5086450;28;20190;-67
2021/01/11 06:00:25;;;;;;;23.57;13.93;;;;;;;-5.88;89.23;97280.75;5076969;28;20174;-67
2021/01/11 06:02:53;;;;;;;23.43;13.97;;;;;;;-5.84;89.30;97275.38;5073252;28;20209;-67
2021/01/11 06:05:19;;;;;;;24.00;13.07;;;;;;;-5.81;89.09;97275.16;5074058;28;20173;-67
2021/01/11 06:07:46;;;;;;;24.23;13.40;;;;;;;-5.87;89.74;97274.69;5072705;28;20551;-70
2021/01/11 06:10:13;;;;;;;24.30;14.97;;;;;;;-5.74;88.84;97276.34;5074151;28;20544;-67
2021/01/11 06:12:40;;;;;;;25.07;14.47;;;;;;;-5.59;88.22;97265.00;5073061;28;20205;-67
2021/01/11 06:15:10;;;;;;;26.20;14.67;;;;;;;-5.71;88.43;97271.00;5073989;28;20664;-67
2021/01/11 06:17:38;;;;;;;23.47;13.83;;;;;;;-5.80;88.50;97258.94;5073379;28;20177;-67
2021/01/11 06:20:06;;;;;;;23.73;14.40;;;;;;;-5.77;88.53;97272.28;5073913;28;20173;-67
2021/01/11 06:22:57;;;;;;;22.03;13.83;;;;;;;-5.88;88.88;97262.91;5073406;28;20231;-67
2021/01/11 06:25:28;;;;;;;24.53;13.60;;;;;;;-5.88;89.13;97267.19;5068516;28;20193;-67
2021/01/11 06:28:04;;;;;;;25.87;14.43;;;;;;;-5.80;88.64;97267.41;5073008;28;20201;-67
2021/01/11 06:30:38;;;;;;;23.27;13.90;;;;;;;-5.89;88.79;97257.91;5073958;28;20268;-67
2021/01/11 06:33:06;;;;;;;21.93;13.17;;;;;;;-5.88;88.97;97259.53;5072874;28;20204;-67
2021/01/11 06:35:51;;;;;;;25.43;14.17;;;;;;;-5.82;88.93;97253.94;5072926;28;20191;-67
2021/01/11 06:38:22;;;;;;;23.37;13.60;;;;;;;-5.89;88.98;97258.72;5073416;28;20391;-68
2021/01/11 06:41:04;;;;;;;21.83;13.50;;;;;;;-5.76;89.04;97255.22;5072344;28;20189;-67
2021/01/11 06:43:45;;;;;;;23.07;13.00;;;;;;;-5.88;88.29;97259.53;5073520;28;20267;-66
2021/01/11 06:46:42;;;;;;;25.00;14.17;;;;;;;-5.79;88.43;97255.44;5063975;28;20217;-66
2021/01/11 06:49:10;;;;;;;22.17;13.43;;;;;;;-5.89;88.36;97263.00;5070136;28;20233;-68
2021/01/11 06:51:43;;;;;;;24.03;13.03;;;;;;;-5.98;89.14;97264.50;5069416;28;20665;-68
2021/01/11 06:54:14;;;;;;;27.63;13.70;;;;;;;-6.01;89.67;97263.91;5072761;28;20285;-68
2021/01/11 06:56:41;;;;;;;20.20;12.90;;;;;;;-5.84;88.61;97258.34;5069929;28;20185;-66
2021/01/11 06:59:09;;;;;;;21.23;13.57;;;;;;;-5.84;88.48;97260.88;5073305;28;20174;-66
2021/01/11 07:01:39;;;;;;;21.67;13.57;;;;;;;-5.71;87.59;97268.47;5072415;28;20659;-68
2021/01/11 07:04:06;;;;;;;20.13;12.93;;;;;;;-5.64;86.69;97264.53;5073979;28;20260;-63
2021/01/11 07:06:39;;;;;;;22.70;13.63;;;;;;;-5.57;86.50;97268.22;5073577;28;20249;-64
2021/01/11 07:09:17;;;;;;;21.87;13.03;;;;;;;-5.63;86.50;97278.91;5074143;28;20193;-64
2021/01/11 07:11:48;;;;;;;21.77;13.33;;;;;;;-5.60;86.54;97266.72;5072980;28;20661;-64
2021/01/11 07:14:16;;;;;;;25.37;13.77;;;;;;;-5.65;86.94;97275.66;5072705;28;20570;-66
2021/01/11 07:16:45;;;;;;;22.07;12.87;;;;;;;-5.66;86.51;97267.19;5072190;28;20230;-64
2021/01/11 07:19:12;;;;;;;23.03;13.50;;;;;;;-5.58;86.79;97266.63;5073046;28;20173;-64
2021/01/11 07:21:38;;;;;;;23.20;13.60;;;;;;;-5.59;86.80;97285.41;5071947;28;20205;-64
2021/01/11 07:24:08;;;;;;;21.27;13.20;;;;;;;-5.60;86.45;97288.88;5072588;28;20177;-64
2021/01/11 07:26:36;;;;;;;20.47;12.73;;;;;;;-5.62;86.40;97283.88;5072340;28;20173;-64
2021/01/11 07:29:03;;;;;;;21.57;13.50;;;;;;;-5.50;86.17;97275.31;5072815;28;20205;-65
2021/01/11 07:31:30;;;;;;;21.40;13.43;;;;;;;-5.45;85.63;97274.97;5072035;28;20224;-64
2021/01/11 07:34:01;;;;;;;19.90;13.27;;;;;;;-5.47;86.03;97271.75;5070622;28;20237;-70
2021/01/11 07:36:34;;;;;;;19.93;12.80;;;;;;;-5.35;85.46;97272.56;5071912;28;20190;-64
2021/01/11 07:39:22;;;;;;;24.30;14.07;;;;;;;-5.31;85.05;97282.41;5072673;28;20182;-65
2021/01/11 07:41:57;;;;;;;20.03;12.87;;;;;;;-5.24;85.01;97278.44;5071819;28;20205;-64
2021/01/11 07:44:25;;;;;;;23.77;12.83;;;;;;;-5.11;84.44;97286.00;5072276;28;20187;-67
2021/01/11 07:49:20;;;;;;;24.33;13.50;;;;;;;-4.99;84.61;97300.41;5061879;28;20237;-65
2021/01/11 07:51:47;;;;;;;21.70;13.00;;;;;;;-4.94;83.76;97292.38;5071835;28;20212;-65
2021/01/11 07:54:23;;;;;;;24.43;13.60;;;;;;;-4.75;83.39;97290.03;5072626;28;20591;-65
2021/01/11 07:56:50;;;;;;;23.27;13.70;;;;;;;-4.74;82.84;97291.66;5071548;28;20215;-64
2021/01/11 07:59:17;;;;;;;23.30;14.23;;;;;;;-4.72;82.49;97294.88;5072198;28;20166;-65
2021/01/11 08:01:48;;;;;;;22.03;14.20;;;;;;;-4.66;81.84;97307.19;5071488;28;20605;-65
2021/01/11 08:04:14;;;;;;;23.83;14.53;;;;;;;-4.72;81.71;97298.25;5051886;28;20185;-64
2021/01/11 08:06:48;;;;;;;27.63;14.53;;;;;;;-4.67;81.74;97301.28;5061480;28;20172;-65
2021/01/11 08:09:15;;;;;;;21.00;13.37;;;;;;;-4.62;81.62;97311.13;5063011;28;20728;-65
2021/01/11 08:11:41;;;;;;;21.27;13.80;;;;;;;-4.48;80.61;97316.00;5064579;28;20276;-65
2021/01/11 08:14:08;;;;;;;23.97;15.33;;;;;;;-4.39;82.62;97322.94;5072035;28;20299;-66
2021/01/11 08:16:35;;;;;;;23.53;14.03;;;;;;;-4.41;80.97;97327.38;5071146;28;20177;-62
2021/01/11 08:19:11;;;;;;;21.70;14.40;;;;;;;-4.43;80.69;97325.88;5071888;28;20177;-69
2021/01/11 08:21:38;;;;;;;23.70;14.70;;;;;;;-4.38;80.07;97319.44;5071272;28;20201;-63
2021/01/11 08:24:07;;;;;;;21.90;14.00;;;;;;;-4.35;80.84;97321.78;5070944;28;20172;-64
2021/01/11 08:26:50;;;;;;;21.87;14.07;;;;;;;-4.37;80.31;97333.06;5071521;28;20255;-63
2021/01/11 08:29:16;;;;;;;24.70;14.83;;;;;;;-4.52;80.62;97324.03;5071364;28;20205;-64
2021/01/11 08:31:45;;;;;;;23.73;14.27;;;;;;;-4.45;80.43;97320.84;5070169;28;20197;-65
2021/01/11 08:34:12;;;;;;;21.83;13.40;;;;;;;-4.46;81.80;97314.16;5071599;28;20260;-63
2021/01/11 08:36:38;;;;;;;20.77;13.57;;;;;;;-4.38;80.66;97311.78;5070490;28;20168;-63
2021/01/11 08:39:05;;;;;;;24.70;13.97;;;;;;;-4.25;79.70;97311.63;5071702;28;20177;-64
2021/01/11 08:41:42;;;;;;;24.20;14.37;;;;;;;-4.16;80.59;97310.88;5071139;28;20205;-64
2021/01/11 08:44:32;;;;;;;25.07;13.73;;;;;;;-4.11;80.18;97325.88;5071948;28;20179;-63
2021/01/11 08:47:07;;;;;;;26.80;13.90;;;;;;;-4.11;81.10;97325.88;5069841;28;20228;-64
2021/01/11 08:49:54;;;;;;;20.13;13.20;;;;;;;-4.00;78.87;97325.81;5068459;28;20192;-63
2021/01/11 08:52:27;;;;;;;23.30;12.57;;;;;;;-3.84;84.58;97319.34;5071525;28;20196;-67
2021/01/11 08:54:53;;;;;;;24.30;14.43;;;;;;;-3.43;85.25;97315.16;5069916;28;20162;-62
2021/01/11 08:57:20;;;;;;;22.40;14.37;;;;;;;-3.79;78.57;97312.09;5071534;28;20165;-62
2021/01/11 08:59:51;;;;;;;21.87;13.67;;;;;;;-4.07;79.23;97309.34;5071371;28;20161;-62
2021/01/11 09:02:28;;;;;;;21.27;13.47;;;;;;;-4.22;80.07;97312.19;5070964;28;20200;-62
2021/01/11 09:04:54;;;;;;;21.17;12.87;;;;;;;-4.09;79.12;97316.34;5070371;28;20164;-63
2021/01/11 09:07:27;;;;;;;22.47;13.67;;;;;;;-3.96;79.32;97319.53;5070483;28;20177;-63
2021/01/11 09:09:53;;;;;;;20.03;12.13;;;;;;;-3.82;78.74;97308.97;5069734;28;20181;-61
2021/01/11 09:12:34;;;;;;;35.93;13.90;;;;;;;-3.92;78.41;97306.38;5070063;28;20193;-62
2021/01/11 09:15:00;;;;;;;25.87;12.77;;;;;;;-3.92;78.33;97297.88;5070321;28;20176;-62
2021/01/11 09:17:31;;;;;;;21.13;12.97;;;;;;;-3.82;78.05;97301.31;5070557;28;20180;-63
2021/01/11 09:20:03;;;;;;;22.03;12.87;;;;;;;-4.01;78.38;97319.09;5069931;28;20264;-63
2021/01/11 09:22:41;;;;;;;20.10;12.53;;;;;;;-3.93;78.43;97326.97;5070496;28;20201;-62
2021/01/11 09:25:10;;;;;;;19.67;12.50;;;;;;;-3.70;77.94;97331.03;5070761;28;20200;-64
2021/01/11 09:27:39;;;;;;;23.20;13.13;;;;;;;-3.64;76.87;97335.66;5070032;28;20192;-65
2021/01/11 09:30:07;;;;;;;23.13;13.80;;;;;;;-3.69;77.35;97330.13;5070449;28;20173;-62
2021/01/11 09:32:33;;;;;;;21.70;12.53;;;;;;;-3.57;77.56;97344.47;5069379;28;20197;-63
2021/01/11 09:34:58;;;;;;;20.60;12.43;;;;;;;-3.44;76.77;97347.66;5071600;28;20185;-62
2021/01/11 09:37:24;;;;;;;22.63;12.93;;;;;;;-3.54;75.95;97361.34;5074201;28;20200;-63
2021/01/11 09:39:50;;;;;;;21.50;12.50;;;;;;;-3.39;76.61;97357.50;5072969;28;20272;-65
2021/01/11 09:42:16;;;;;;;24.87;13.63;;;;;;;-3.17;75.88;97359.94;5073367;28;20630;-64
2021/01/11 09:44:42;;;;;;;21.60;12.30;;;;;;;-3.28;75.98;97342.06;5073476;28;20192;-64
2021/01/11 09:47:08;;;;;;;22.97;12.67;;;;;;;-3.25;76.29;97349.53;5073092;28;20207;-64
2021/01/11 09:49:34;;;;;;;20.43;12.33;;;;;;;-3.32;75.94;97337.31;5092524;28;20253;-63
2021/01/11 09:52:00;;;;;;;21.50;13.53;;;;;;;-3.33;76.64;97331.38;5093253;28;20196;-63
2021/01/11 09:54:26;;;;;;;24.73;13.77;;;;;;;-3.28;76.62;97328.44;5093662;28;20176;-64
2021/01/11 09:56:52;;;;;;;22.93;13.27;;;;;;;-3.26;77.29;97317.13;5074690;28;20621;-63
2021/01/11 09:59:17;;;;;;;24.93;13.40;;;;;;;-3.18;76.76;97329.31;5093876;28;20249;-62
2021/01/11 10:01:47;;;;;;;20.67;12.27;;;;;;;-3.04;75.55;97328.97;5093097;28;20200;-62
2021/01/11 10:04:15;;;;;;;23.67;12.90;;;;;;;-3.04;77.05;97331.53;5093953;28;20175;-61
2021/01/11 10:06:45;;;;;;;22.57;12.50;;;;;;;-3.10;76.90;97330.28;5092650;28;20172;-62
2021/01/11 10:09:11;;;;;;;22.10;12.23;;;;;;;-3.06;76.50;97329.09;5093691;28;20539;-62
2021/01/11 10:11:39;;;;;;;21.97;12.70;;;;;;;-2.96;75.73;97332.53;5093190;28;20222;-61
2021/01/11 10:14:06;;;;;;;22.93;12.83;;;;;;;-2.78;75.89;97331.88;5093558;28;20701;-62
2021/01/11 10:16:33;;;;;;;21.63;13.03;;;;;;;-2.88;76.18;97328.50;5093784;28;20687;-62
2021/01/11 10:18:58;;;;;;;19.97;12.07;;;;;;;-2.81;75.50;97321.91;5093049;28;20229;-62
2021/01/11 10:21:25;;;;;;;24.80;12.63;;;;;;;-2.67;74.96;97330.03;5093424;28;20295;-62
2021/01/11 10:23:51;;;;;;;22.53;12.33;;;;;;;-2.69;75.17;97333.69;5092633;28;20177;-62
2021/01/11 10:26:23;;;;;;;20.40;11.83;;;;;;;-2.59;75.11;97327.63;5093551;28;20184;-62
2021/01/11 10:28:50;;;;;;;25.43;12.27;;;;;;;-2.60;74.73;97326.00;5092665;28;20287;-62
2021/01/11 10:31:19;;;;;;;17.97;11.63;;;;;;;-2.56;74.67;97321.41;5092843;28;20243;-63
2021/01/11 10:33:47;;;;;;;21.03;13.03;;;;;;;-2.39;74.56;97325.09;5092682;28;20175;-62
2021/01/11 10:36:13;;;;;;;20.23;12.33;;;;;;;-2.35;73.79;97311.91;5092956;28;20219;-61
2021/01/11 10:38:40;;;;;;;19.90;12.43;;;;;;;-2.40;73.59;97308.09;5092425;28;20184;-61
2021/01/11 10:41:05;;;;;;;17.30;11.03;;;;;;;-2.39;73.66;97310.50;5092871;28;20204;-60
2021/01/11 10:43:33;;;;;;;21.07;12.83;;;;;;;-2.36;73.16;97315.41;5092423;28;20200;-62
2021/01/11 10:46:00;;;;;;;21.47;11.97;;;;;;;-2.41;73.37;97304.72;5091853;28;20545;-62
2021/01/11 10:48:26;;;;;;;20.63;12.47;;;;;;;-2.29;73.52;97307.97;5088704;28;20225;-61
2021/01/11 10:50:52;;;;;;;20.37;12.13;;;;;;;-2.36;73.78;97299.19;5091951;28;20176;-62
2021/01/11 10:53:18;;;;;;;19.60;11.83;;;;;;;-2.13;72.92;97293.66;5092633;28;20275;-63
2021/01/11 10:55:43;;;;;;;20.17;12.00;;;;;;;-2.03;72.66;97293.66;5092150;28;20173;-58
2021/01/11 10:58:09;;;;;;;19.43;11.77;;;;;;;-1.98;72.72;97280.41;5092612;28;20171;-61
2021/01/11 11:00:34;;;;;;;20.47;11.90;;;;;;;-1.94;72.41;97280.00;5092416;28;20173;-62
2021/01/11 11:03:00;;;;;;;18.23;11.43;;;;;;;-1.90;72.66;97285.69;5092421;28;20219;-61
2021/01/11 11:05:26;;;;;;;20.03;12.17;;;;;;;-1.97;73.68;97277.72;5092329;28;20185;-62
2021/01/11 11:07:53;;;;;;;20.23;12.13;;;;;;;-1.88;73.64;97265.78;5091962;28;20196;-61
2021/01/11 11:10:19;;;;;;;22.43;12.00;;;;;;;-1.97;73.40;97271.75;5092741;28;20176;-61
2021/01/11 11:12:45;;;;;;;17.27;11.50;;;;;;;-1.97;73.14;97270.00;5091892;28;20219;-61
2021/01/11 11:15:11;;;;;;;18.20;11.57;;;;;;;-1.95;73.15;97265.53;5093829;28;20168;-62
2021/01/11 11:17:42;;;;;;;21.17;12.57;;;;;;;-1.98;73.52;97257.28;5092661;28;20264;-64
2021/01/11 11:20:08;;;;;;;20.70;12.10;;;;;;;-1.99;73.65;97259.03;5092553;28;20179;-59
2021/01/11 11:22:34;;;;;;;19.67;11.43;;;;;;;-2.07;73.86;97261.50;5092284;28;20212;-60
2021/01/11 11:25:05;;;;;;;17.50;11.20;;;;;;;-1.93;73.00;97262.81;5091292;28;20181;-60
2021/01/11 11:27:34;;;;;;;18.17;11.83;;;;;;;-2.02;73.38;97268.78;5084534;28;20179;-59
2021/01/11 11:30:00;;;;;;;17.90;10.83;;;;;;;-2.00;72.91;97279.72;5091410;28;20195;-62
2021/01/11 11:32:25;;;;;;;18.27;10.87;;;;;;;-2.05;73.13;97269.03;5091965;28;20196;-62
2021/01/11 11:34:51;;;;;;;18.40;11.00;;;;;;;-2.08;73.45;97264.19;5091677;28;20271;-62
2021/01/11 11:37:20;;;;;;;19.23;12.03;;;;;;;-2.00;72.81;97264.31;5092100;28;20519;-57
2021/01/11 11:39:46;;;;;;;17.53;10.97;;;;;;;-1.93;72.85;97261.06;5091171;28;20586;-62
2021/01/11 11:42:12;;;;;;;18.40;11.97;;;;;;;-1.86;72.09;97262.16;5091713;28;20212;-62
2021/01/11 11:44:37;;;;;;;19.87;11.87;;;;;;;-1.86;72.62;97267.28;5091500;28;20185;-64
2021/01/11 11:47:03;;;;;;;17.83;11.33;;;;;;;-1.65;72.60;97261.97;5089225;28;20263;-62
2021/01/11 11:49:28;;;;;;;18.03;11.50;;;;;;;-1.62;71.75;97248.03;5089758;28;20274;-62
2021/01/11 11:51:54;;;;;;;16.90;11.37;;;;;;;-1.49;70.84;97248.53;5090835;28;20208;-62
2021/01/11 11:54:19;;;;;;;22.13;11.97;;;;;;;-1.31;71.29;97250.25;5092114;28;20176;-63
2021/01/11 11:56:45;;;;;;;18.23;11.57;;;;;;;-1.40;70.87;97251.09;5089302;28;20180;-63
2021/01/11 11:59:10;;;;;;;21.50;11.80;;;;;;;-1.30;71.28;97253.63;5091734;28;20173;-62
2021/01/11 12:01:41;;;;;;;17.97;12.23;;;;;;;-1.33;70.22;97246.16;5091048;28;20212;-62
2021/01/11 12:04:08;;;;;;;17.07;12.33;;;;;;;-1.11;70.96;97245.00;5092295;28;20192;-61
2021/01/11 12:06:44;;;;;;;18.87;10.90;;;;;;;-1.23;71.12;97231.53;5091763;28;20196;-63